Notice: Undefined index: language in /home/u908952976/domains/airgaviota-va.com/public_html/vam/index.php on line 25
AirGaviota-VA

... VIRTUAL FLIGHT...OUR PASSION



 METAR AND TAF INFORMATION

Deprecated: The each() function is deprecated. This message will be suppressed on further calls in /home/u908952976/domains/airgaviota-va.com/public_html/vam/helpers/get_metar.php on line 20
METAR FOR OIII
ADDS - METARS form results

(1754 UTC 27 January 2022)
Data provider http://aviationweather.gov/metar/data/
 
METAR text: OIII 271737Z 28010KT 8000 FEW035CB SCT040 BKN100 05/M01 Q1011 A2986
Conditions at: OIII (TEHRAN/MEHRABAD , IR) observed 1737 UTC 27 January 2022
Temperature: 5.0°C (41°F)
Dewpoint: -1.0°C (30°F) [RH = 65%]
Pressure (altimeter): 29.85 inches Hg (1011.0 mb)
Winds: from the W (280 degrees) at 12 MPH (10 knots; 5.1 m/s)
Visibility: 5 miles ( 8 km)
Ceiling: 10000 feet AGL
Clouds: few clouds at 3500 feet AGL
scattered clouds at 4000 feet AGL
broken clouds at 10000 feet AGL
Weather: no significant weather observed at this time

METAR text: OIII 271730Z 29008KT 6000 GR FEW035CB SCT040 BKN090 04/M00 Q1010 A2985
Conditions at: OIII (TEHRAN/MEHRABAD , IR) observed 1730 UTC 27 January 2022
Temperature: 4.0°C (39°F)
Dewpoint: 0.0°C (32°F) [RH = 75%]
Pressure (altimeter): 29.82 inches Hg (1010.0 mb)
Winds: from the WNW (290 degrees) at 9 MPH (8 knots; 4.1 m/s)
Visibility: 4 miles ( 6 km)
Ceiling: 9000 feet AGL
Clouds: few clouds at 3500 feet AGL
scattered clouds at 4000 feet AGL
broken clouds at 9000 feet AGL
Weather: GR  (hail)

METAR text: OIII 271706Z 26010KT 6000 FEW035CB SCT040 BKN100 04/01 Q1011 A2986
Conditions at: OIII (TEHRAN/MEHRABAD , IR) observed 1706 UTC 27 January 2022
Temperature: 4.0°C (39°F)
Dewpoint: 1.0°C (34°F) [RH = 81%]
Pressure (altimeter): 29.85 inches Hg (1011.0 mb)
Winds: from the W (260 degrees) at 12 MPH (10 knots; 5.1 m/s)
Visibility: 4 miles ( 6 km)
Ceiling: 10000 feet AGL
Clouds: few clouds at 3500 feet AGL
scattered clouds at 4000 feet AGL
broken clouds at 10000 feet AGL
Weather: no significant weather observed at this time

METAR text: OIII 271700Z 26012KT 4000 -SHRA BR FEW035CB SCT040 BKN090 04/01 Q1011 A2986 NOSIG
Conditions at: OIII (TEHRAN/MEHRABAD , IR) observed 1700 UTC 27 January 2022
Temperature: 4.0°C (39°F)
Dewpoint: 1.0°C (34°F) [RH = 81%]
Pressure (altimeter): 29.85 inches Hg (1011.0 mb)
Winds: from the W (260 degrees) at 14 MPH (12 knots; 6.2 m/s)
Visibility: 2.49 miles (4.01 km)
Ceiling: 9000 feet AGL
Clouds: few clouds at 3500 feet AGL
scattered clouds at 4000 feet AGL
broken clouds at 9000 feet AGL
Weather: -SHRA BR  (light rain showers, mist)

Forecast for: OIII (TEHRAN/MEHRABAD , IR)
Text: TAF OIII 271100Z 2712/2818 15008KT 4000 RA BR FEW035CB SCT040 BKN080
Forecast period: 1200 to 2100 UTC 27 January 2022
Forecast type: FROM: standard forecast or significant change
Winds: from the SSE (150 degrees) at 9 MPH (8 knots; 4.1 m/s)
Visibility: 2.49 miles (4.01 km)
Ceiling: 8000 feet AGL
Clouds: few clouds at 3500 feet AGL
scattered clouds at 4000 feet AGL
broken clouds at 8000 feet AGL
Weather: RA BR  (moderate rain, mist)
Text: TEMPO 2712/2716 11006KT 2000 RA BR FEW030CB SCT035 OVC080
Forecast period: 1200 to 1600 UTC 27 January 2022
Forecast type: TEMPORARY: The following changes expected for less than half the time period
Winds: from the ESE (110 degrees) at 7 MPH (6 knots; 3.1 m/s)
Visibility: 1.24 miles (2.00 km)
Ceiling: 8000 feet AGL
Clouds: few clouds at 3000 feet AGL
scattered clouds at 3500 feet AGL
overcast cloud deck at 8000 feet AGL
Weather: RA BR  (moderate rain, mist)
Text: BECMG 2721/2723 30008KT 6000 FEW040
Forecast period: 2100 UTC 27 January 2022 to 1800 UTC 28 January 2022
Forecast type: BECOMING: Conditions expected to become as follows by 2300 UTC 27 January 2022
Winds: from the WNW (300 degrees) at 9 MPH (8 knots; 4.1 m/s)
Visibility: 4 miles (6 km)
Ceiling: at least 12,000 feet AGL
Clouds: few clouds at 4000 feet AGL
Weather: RA BR  (moderate rain, mist)
Text: TEMPO 2724/2803 28018KT
Forecast period: 0000 to 0300 UTC 28 January 2022
Forecast type: TEMPORARY: The following changes expected for less than half the time period
Winds: from the W (280 degrees) at 21 MPH (18 knots; 9.3 m/s)
Visibility: missing
Ceiling: unknown
Clouds: missing
Weather: no significant weather forecast for this period
Text: TEMPO 2809/2818 31018KT
Forecast period: 0900 to 1800 UTC 28 January 2022
Forecast type: TEMPORARY: The following changes expected for less than half the time period
Winds: from the NW (310 degrees) at 21 MPH (18 knots; 9.3 m/s)
Visibility: missing
Ceiling: unknown
Clouds: missing
Weather: no significant weather forecast for this period

 AIRPORT MAP

 RUNWAY INFORMATION
Runway 09 Runway length 1554 ft Runway width 130 ft
Runway elevation 0 ft Runway displaced threshold 0 ft Runway heading 89
Runway 27 Runway length 1554 ft Runway width 130 ft
Runway elevation 0 ft Runway displaced threshold 0 ft Runway heading 269
Runway 11L Runway length 13098 ft Runway width 148 ft
Runway elevation 3962 ft Runway displaced threshold 0 ft Runway heading 109
Runway 29R Runway length 13098 ft Runway width 148 ft
Runway elevation 3797 ft Runway displaced threshold 0 ft Runway heading 289
Runway 11R Runway length 13248 ft Runway width 197 ft
Runway elevation 3949 ft Runway displaced threshold 3075 ft Runway heading 109
Runway 29L Runway length 13248 ft Runway width 197 ft
Runway elevation 3794 ft Runway displaced threshold 0 ft Runway heading 289

 AIRPORT FREQUENCIES
Type APP Name APP Frequency 119.7 MHZ
Type ATIS Name ATIS Frequency 128 MHZ
Type GND Name GND Frequency 121.7 MHZ
Type TWR Name TWR Frequency 118.1 MHZ

 AIRPORT NEAR NAVIGATION AIDS
Type TACAN Name Tehran Frequency 113300 KHZ
Type VOR-DME Name Tehran Frequency 115300 KHZ